West Hallam, United Kingdom
Current Conditions -  °F | °C
As of 11:20 PM on Monday 22 Dec 2014 (Local Time) from EGNX Reporting Station
Broken Clouds Broken Clouds  
Wind Chill: 54°   Ceiling: 1600
Heat Index: 54°   Visibility: 6mi
Dew Point: 46°   Wind: 23mph
Humidity: 77%   Direction: 230°SW
Pressure: 29.91"   Gusts: 35mph
Location:  52.97°N, 1.36°W
Report Text: EGNX 222320Z 23020G30KT 9999 BKN016 12/08 Q1013
Loading
Personal Weather Stations






























Interactive Weather Map New forecast layout! Learn more

10-Day Weather Forecast

Advertisements
Track Severe Weather on mobile